createdAt,value
2022-11-17T00:00:01.443Z,11.45
2022-11-17T00:05:03.283Z,11.37
2022-11-17T00:10:05.094Z,11.37
2022-11-17T00:15:06.676Z,11.39
2022-11-17T00:20:29.354Z,11.37
2022-11-17T00:25:30.656Z,11.37
2022-11-17T00:30:50.598Z,11.34
2022-11-17T00:35:54.270Z,11.35
2022-11-17T00:40:55.533Z,11.36
2022-11-17T00:45:56.804Z,11.30
2022-11-17T00:51:02.751Z,11.27
2022-11-17T00:56:04.160Z,11.20
2022-11-17T01:01:05.873Z,11.21
2022-11-17T01:06:10.175Z,11.17
2022-11-17T01:11:19.383Z,11.19
2022-11-17T01:16:21.311Z,11.16
2022-11-17T01:21:24.984Z,11.10
2022-11-17T01:26:29.074Z,11.03
2022-11-17T01:31:36.199Z,11.06
2022-11-17T01:36:59.056Z,11.07
2022-11-17T01:42:11.681Z,11.05
2022-11-17T01:47:38.265Z,11.07
2022-11-17T01:52:40.969Z,11.06
2022-11-17T01:57:49.804Z,11.05
2022-11-17T02:02:51.837Z,11.02
2022-11-17T02:07:55.048Z,11.01
2022-11-17T02:12:56.561Z,10.94
2022-11-17T02:17:59.018Z,10.90
2022-11-17T02:23:33.499Z,10.95
2022-11-17T02:28:40.207Z,10.92
2022-11-17T02:33:41.402Z,10.94
2022-11-17T02:38:57.221Z,10.92
2022-11-17T02:44:21.634Z,10.94
2022-11-17T02:49:36.473Z,10.93
2022-11-17T02:54:37.888Z,10.93
2022-11-17T02:59:46.013Z,10.96
2022-11-17T03:05:14.588Z,10.94
2022-11-17T03:10:43.836Z,10.95
2022-11-17T03:15:57.842Z,10.99
2022-11-17T03:21:05.097Z,11.01
2022-11-17T03:26:12.236Z,10.93
2022-11-17T03:31:15.043Z,10.91
2022-11-17T03:36:22.210Z,10.87
2022-11-17T03:41:25.623Z,10.91
2022-11-17T03:46:29.407Z,10.91
2022-11-17T03:51:33.050Z,10.89
2022-11-17T03:56:49.052Z,10.85
2022-11-17T04:01:51.073Z,10.83
2022-11-17T04:06:55.529Z,10.83
2022-11-17T04:12:15.435Z,10.84
2022-11-17T04:17:16.704Z,10.86
2022-11-17T04:22:17.995Z,10.87
2022-11-17T04:27:38.160Z,10.88
2022-11-17T04:32:39.412Z,10.94
2022-11-17T04:37:40.672Z,10.91
2022-11-17T04:42:41.944Z,10.96
2022-11-17T04:47:43.217Z,10.99
2022-11-17T04:52:44.452Z,10.96
2022-11-17T04:57:45.708Z,10.98
2022-11-17T05:02:46.979Z,10.98
2022-11-17T05:07:48.211Z,10.98
2022-11-17T05:13:08.758Z,10.99
2022-11-17T05:18:10.031Z,11.09
2022-11-17T05:23:29.697Z,11.11
2022-11-17T05:28:31.344Z,11.14
2022-11-17T05:33:37.556Z,11.13
2022-11-17T05:38:39.407Z,11.14
2022-11-17T05:43:40.700Z,11.17
2022-11-17T05:48:41.943Z,11.17
2022-11-17T05:53:43.262Z,11.16
2022-11-17T05:58:47.105Z,11.14
2022-11-17T06:03:53.803Z,11.14
2022-11-17T06:08:55.759Z,11.28
2022-11-17T06:13:57.032Z,11.31
2022-11-17T06:19:15.814Z,11.28
2022-11-17T06:24:17.547Z,11.22
2022-11-17T06:29:19.448Z,11.20
2022-11-17T06:34:20.890Z,11.20
2022-11-17T06:39:22.132Z,11.18
2022-11-17T06:44:23.366Z,11.24
2022-11-17T06:49:24.793Z,11.24
2022-11-17T06:54:26.611Z,11.25
2022-11-17T06:59:28.022Z,11.25
2022-11-17T07:04:29.391Z,11.30
2022-11-17T07:09:30.833Z,11.28
2022-11-17T07:14:32.177Z,11.22
2022-11-17T07:19:33.634Z,11.25
2022-11-17T07:24:34.977Z,11.21
2022-11-17T07:29:36.414Z,11.13
2022-11-17T07:34:37.755Z,11.20
2022-11-17T07:39:39.179Z,11.22
2022-11-17T07:44:40.502Z,11.34
2022-11-17T07:49:41.872Z,11.47
2022-11-17T07:54:43.257Z,11.63
2022-11-17T07:59:44.592Z,11.79
2022-11-17T08:04:45.892Z,11.99
2022-11-17T08:09:47.179Z,12.18
2022-11-17T08:14:48.491Z,12.37
2022-11-17T08:19:49.852Z,12.41
2022-11-17T08:24:51.147Z,12.31
2022-11-17T08:29:52.653Z,12.30
2022-11-17T08:34:54.195Z,12.14
2022-11-17T08:39:55.715Z,12.17
2022-11-17T08:44:57.106Z,12.15
2022-11-17T08:49:58.487Z,12.32
2022-11-17T08:55:00.079Z,12.47
2022-11-17T09:00:02.207Z,12.55
2022-11-17T09:05:04.252Z,12.69
2022-11-17T09:10:06.727Z,12.78
2022-11-17T09:15:08.578Z,12.83
2022-11-17T09:20:10.493Z,12.93
2022-11-17T09:25:13.652Z,12.91
2022-11-17T09:30:15.616Z,12.81
2022-11-17T09:35:18.303Z,12.76
2022-11-17T09:40:20.891Z,12.66
2022-11-17T09:45:27.822Z,13.17
2022-11-17T09:50:34.777Z,13.84
2022-11-17T09:55:38.958Z,13.79
2022-11-17T10:00:43.375Z,13.80
2022-11-17T10:05:44.842Z,13.65
2022-11-17T10:10:49.321Z,13.56
2022-11-17T10:15:57.603Z,13.50
2022-11-17T10:20:58.932Z,14.04
2022-11-17T10:26:00.319Z,16.48
2022-11-17T10:31:04.834Z,18.06
2022-11-17T10:36:14.846Z,18.96
2022-11-17T10:41:20.087Z,17.70
2022-11-17T10:46:22.222Z,15.88
2022-11-17T10:51:26.513Z,14.95
2022-11-17T10:56:29.696Z,14.88
2022-11-17T11:01:37.296Z,17.46
2022-11-17T11:06:38.591Z,20.10
2022-11-17T11:11:48.175Z,19.38
2022-11-17T11:16:50.907Z,16.83
2022-11-17T11:22:30.464Z,15.45
2022-11-17T11:27:47.781Z,14.49
2022-11-17T11:33:23.716Z,13.76
2022-11-17T11:38:37.217Z,13.55
2022-11-17T11:44:00.323Z,13.56
2022-11-17T11:49:16.452Z,13.28
2022-11-17T11:54:40.542Z,13.65
2022-11-17T11:59:50.606Z,14.71
2022-11-17T12:05:17.851Z,14.22
2022-11-17T12:10:36.154Z,13.96
2022-11-17T12:15:37.722Z,14.89
2022-11-17T12:20:39.130Z,20.98
2022-11-17T12:25:53.875Z,25.09
2022-11-17T12:31:10.122Z,26.14
2022-11-17T12:36:32.326Z,23.67
2022-11-17T12:41:48.607Z,20.05
2022-11-17T12:46:59.438Z,17.91
2022-11-17T12:52:07.823Z,16.89
2022-11-17T12:57:31.997Z,15.87
2022-11-17T13:03:10.165Z,16.88
2022-11-17T13:08:21.167Z,19.23
2022-11-17T13:13:24.272Z,21.70
2022-11-17T13:18:36.583Z,23.74
2022-11-17T13:23:44.281Z,22.51
2022-11-17T13:28:46.249Z,18.68
2022-11-17T13:34:07.026Z,16.89
2022-11-17T13:39:16.856Z,15.90
2022-11-17T13:44:23.061Z,15.38
2022-11-17T13:49:32.236Z,14.97
2022-11-17T13:54:34.837Z,14.82
2022-11-17T13:59:38.392Z,14.73
2022-11-17T14:04:39.666Z,14.58
2022-11-17T14:09:40.915Z,14.28
2022-11-17T14:14:44.094Z,14.24
2022-11-17T14:19:46.620Z,13.93
2022-11-17T14:24:47.886Z,13.84
2022-11-17T14:29:49.157Z,13.77
2022-11-17T14:34:50.459Z,13.59
2022-11-17T14:39:51.788Z,13.44
2022-11-17T14:44:53.151Z,13.32
2022-11-17T14:49:54.636Z,13.30
2022-11-17T14:54:55.975Z,12.99
2022-11-17T14:59:57.413Z,12.95
2022-11-17T15:04:59.973Z,12.90
2022-11-17T15:10:01.562Z,12.95
2022-11-17T15:15:04.945Z,13.06
2022-11-17T15:20:07.092Z,12.21
2022-11-17T15:25:09.213Z,12.30
2022-11-17T15:30:10.986Z,12.30
2022-11-17T15:35:12.276Z,12.32
2022-11-17T15:40:19.036Z,12.28
2022-11-17T15:45:20.677Z,12.18
2022-11-17T15:50:22.026Z,12.13
2022-11-17T15:55:23.373Z,12.20
2022-11-17T16:00:24.648Z,12.05
2022-11-17T16:05:26.120Z,11.96
2022-11-17T16:10:27.547Z,11.81
2022-11-17T16:15:28.876Z,11.78
2022-11-17T16:20:30.170Z,11.73
2022-11-17T16:25:31.627Z,11.72
2022-11-17T16:30:35.605Z,11.65
2022-11-17T16:35:38.042Z,11.70
2022-11-17T16:40:39.880Z,11.73
2022-11-17T16:45:44.568Z,11.64
2022-11-17T16:50:46.963Z,11.55
2022-11-17T16:55:48.240Z,11.55
2022-11-17T17:00:49.546Z,11.57
2022-11-17T17:05:50.861Z,11.67
2022-11-17T17:10:52.137Z,11.63
2022-11-17T17:15:53.460Z,11.56
2022-11-17T17:20:54.730Z,11.57
2022-11-17T17:26:06.821Z,11.46
2022-11-17T17:31:08.336Z,11.44
2022-11-17T17:36:14.668Z,11.39
2022-11-17T17:41:18.579Z,11.35
2022-11-17T17:46:19.877Z,11.28
2022-11-17T17:51:25.340Z,11.25
2022-11-17T17:56:26.684Z,11.29
2022-11-17T18:01:30.403Z,11.23
2022-11-17T18:06:39.896Z,11.10
2022-11-17T18:11:49.418Z,11.21
2022-11-17T18:16:51.576Z,11.26
2022-11-17T18:21:52.911Z,11.27
2022-11-17T18:26:54.274Z,11.42
2022-11-17T18:31:55.711Z,11.31
2022-11-17T18:36:57.072Z,11.31
2022-11-17T18:41:58.338Z,11.19
2022-11-17T18:47:02.992Z,11.11
2022-11-17T18:52:05.230Z,10.90
2022-11-17T18:57:07.630Z,10.81
2022-11-17T19:02:08.907Z,10.76
2022-11-17T19:07:10.352Z,10.81
2022-11-17T19:12:12.567Z,10.82
2022-11-17T19:17:13.856Z,10.82
2022-11-17T19:22:15.138Z,10.85
2022-11-17T19:27:16.491Z,10.79
2022-11-17T19:32:17.829Z,10.79
2022-11-17T19:37:19.114Z,10.76
2022-11-17T19:42:20.439Z,10.83
2022-11-17T19:47:21.856Z,10.80
2022-11-17T19:52:23.107Z,10.82
2022-11-17T19:57:24.449Z,10.81
2022-11-17T20:02:25.735Z,10.73
2022-11-17T20:07:27.222Z,10.60
2022-11-17T20:12:28.806Z,10.51
2022-11-17T20:17:30.126Z,10.47
2022-11-17T20:22:31.793Z,10.54
2022-11-17T20:27:33.267Z,10.56
2022-11-17T20:32:35.450Z,10.50
2022-11-17T20:37:36.738Z,10.50
2022-11-17T20:42:37.998Z,10.47
2022-11-17T20:47:39.438Z,10.50
2022-11-17T20:52:40.943Z,10.52
2022-11-17T20:57:42.286Z,10.63
2022-11-17T21:02:43.606Z,10.63
2022-11-17T21:07:44.993Z,10.57
2022-11-17T21:12:46.372Z,10.60
2022-11-17T21:18:06.227Z,10.63
2022-11-17T21:23:07.487Z,10.63
2022-11-17T21:28:09.482Z,10.65
2022-11-17T21:33:10.835Z,10.62
2022-11-17T21:38:12.242Z,10.61
2022-11-17T21:43:13.524Z,10.63
2022-11-17T21:48:14.787Z,10.70
2022-11-17T21:53:16.098Z,10.73
2022-11-17T21:58:17.368Z,10.65
2022-11-17T22:03:18.647Z,10.60
2022-11-17T22:08:19.944Z,10.64
2022-11-17T22:13:21.190Z,10.64
2022-11-17T22:18:22.666Z,10.71
2022-11-17T22:23:24.042Z,10.72
2022-11-17T22:28:26.593Z,10.77
2022-11-17T22:33:28.933Z,10.74
2022-11-17T22:38:31.748Z,10.76
2022-11-17T22:43:33.435Z,10.81
2022-11-17T22:48:36.561Z,10.77
2022-11-17T22:53:38.125Z,10.73
2022-11-17T22:58:39.434Z,10.74
2022-11-17T23:03:40.742Z,10.78
2022-11-17T23:08:42.041Z,10.79
2022-11-17T23:13:43.285Z,10.90
2022-11-17T23:18:44.554Z,10.92
2022-11-17T23:23:45.811Z,10.94
2022-11-17T23:28:47.106Z,10.94
2022-11-17T23:33:48.728Z,10.95
2022-11-17T23:38:51.153Z,10.93
2022-11-17T23:43:53.924Z,10.96
2022-11-17T23:48:56.938Z,10.98
2022-11-17T23:54:00.935Z,11.08
2022-11-17T23:59:02.334Z,11.11
